createdAt,value
2023-04-03T00:00:33.834Z,83.99
2023-04-03T00:03:00.591Z,85.19
2023-04-03T00:05:27.340Z,84.22
2023-04-03T00:07:53.853Z,84.78
2023-04-03T00:10:20.582Z,84.92
2023-04-03T00:12:47.249Z,85.40
2023-04-03T00:15:13.842Z,84.52
2023-04-03T00:17:40.520Z,84.71
2023-04-03T00:20:07.671Z,85.38
2023-04-03T00:22:34.673Z,85.68
2023-04-03T00:25:01.237Z,84.90
2023-04-03T00:27:27.730Z,85.36
2023-04-03T00:29:54.533Z,85.65
2023-04-03T00:32:21.056Z,85.33
2023-04-03T00:34:47.540Z,85.27
2023-04-03T00:37:14.058Z,84.67
2023-04-03T00:39:40.624Z,85.96
2023-04-03T00:42:07.604Z,85.26
2023-04-03T00:44:34.092Z,85.40
2023-04-03T00:47:02.539Z,85.64
2023-04-03T00:49:29.481Z,85.16
2023-04-03T00:51:58.654Z,86.05
2023-04-03T00:54:27.067Z,86.06
2023-04-03T00:56:58.253Z,86.26
2023-04-03T00:59:31.230Z,86.30
2023-04-03T01:02:00.048Z,85.65
2023-04-03T01:04:38.407Z,85.73
2023-04-03T01:07:10.961Z,85.57
2023-04-03T01:09:39.846Z,85.42
2023-04-03T01:12:17.666Z,85.37
2023-04-03T01:14:47.144Z,85.48
2023-04-03T01:17:38.430Z,86.13
2023-04-03T01:20:23.215Z,86.02
2023-04-03T01:22:52.963Z,86.64
2023-04-03T01:25:19.552Z,86.47
2023-04-03T01:27:46.160Z,86.35
2023-04-03T01:30:17.772Z,86.39
2023-04-03T01:32:44.387Z,85.65
2023-04-03T01:35:11.981Z,86.63
2023-04-03T01:37:38.690Z,86.10
2023-04-03T01:40:06.554Z,86.43
2023-04-03T01:42:33.434Z,86.34
2023-04-03T01:44:59.997Z,86.46
2023-04-03T01:47:26.652Z,87.20
2023-04-03T01:49:53.226Z,87.38
2023-04-03T01:52:19.836Z,87.08
2023-04-03T01:54:46.416Z,87.54
2023-04-03T01:57:14.535Z,87.07
2023-04-03T01:59:41.334Z,87.09
2023-04-03T02:02:08.178Z,87.58
2023-04-03T02:04:34.750Z,87.73
2023-04-03T02:07:01.327Z,87.54
2023-04-03T02:09:27.823Z,87.10
2023-04-03T02:11:54.534Z,87.59
2023-04-03T02:14:22.787Z,87.73
2023-04-03T02:16:49.349Z,88.01
2023-04-03T02:19:15.924Z,88.17
2023-04-03T02:21:42.638Z,87.63
2023-04-03T02:24:09.255Z,87.82
2023-04-03T02:26:35.843Z,87.89
2023-04-03T02:29:02.378Z,88.25
2023-04-03T02:31:29.085Z,87.94
2023-04-03T02:33:55.808Z,87.75
2023-04-03T02:36:22.329Z,88.23
2023-04-03T02:38:49.326Z,87.97
2023-04-03T02:41:16.058Z,88.62
2023-04-03T02:43:42.610Z,88.02
2023-04-03T02:46:10.357Z,88.51
2023-04-03T02:48:37.590Z,88.73
2023-04-03T02:51:04.312Z,88.87
2023-04-03T02:53:30.933Z,89.00
2023-04-03T02:55:57.639Z,89.42
2023-04-03T02:58:24.223Z,89.88
2023-04-03T03:00:50.965Z,90.14
2023-04-03T03:03:17.592Z,90.32
2023-04-03T03:05:44.159Z,90.10
2023-04-03T03:08:10.696Z,90.05
2023-04-03T03:10:37.440Z,90.69
2023-04-03T03:13:04.366Z,91.09
2023-04-03T03:15:30.991Z,91.34
2023-04-03T03:17:57.567Z,90.76
2023-04-03T03:20:24.178Z,90.74
2023-04-03T03:22:50.733Z,90.22
2023-04-03T03:25:17.355Z,90.53
2023-04-03T03:27:43.872Z,90.99
2023-04-03T03:30:11.248Z,90.45
2023-04-03T03:32:37.807Z,90.76
2023-04-03T03:35:04.631Z,90.27
2023-04-03T03:37:31.193Z,89.70
2023-04-03T03:39:57.763Z,90.46
2023-04-03T03:42:24.348Z,91.60
2023-04-03T03:44:50.957Z,90.91
2023-04-03T03:47:17.550Z,90.81
2023-04-03T03:49:44.364Z,90.99
2023-04-03T03:52:13.720Z,90.73
2023-04-03T03:54:40.462Z,91.08
2023-04-03T03:57:07.150Z,90.80
2023-04-03T03:59:33.767Z,91.18
2023-04-03T04:02:00.610Z,91.23
2023-04-03T04:04:27.217Z,92.03
2023-04-03T04:06:53.781Z,91.63
2023-04-03T04:09:20.543Z,92.11
2023-04-03T04:11:47.098Z,91.49
2023-04-03T04:14:14.384Z,90.72
2023-04-03T04:16:40.984Z,90.86
2023-04-03T04:19:09.666Z,91.67
2023-04-03T04:21:36.450Z,91.99
2023-04-03T04:24:03.006Z,91.31
2023-04-03T04:26:29.553Z,91.38
2023-04-03T04:28:56.305Z,91.39
2023-04-03T04:31:22.906Z,91.88
2023-04-03T04:33:50.622Z,91.51
2023-04-03T04:36:17.334Z,91.96
2023-04-03T04:38:44.875Z,91.77
2023-04-03T04:41:11.508Z,91.18
2023-04-03T04:43:38.078Z,92.42
2023-04-03T04:46:07.761Z,91.45
2023-04-03T04:48:36.295Z,91.67
2023-04-03T04:51:04.153Z,92.10
2023-04-03T04:53:30.751Z,92.16
2023-04-03T04:55:57.311Z,92.40
2023-04-03T04:58:24.105Z,91.56
2023-04-03T05:00:50.922Z,92.00
2023-04-03T05:03:17.583Z,92.02
2023-04-03T05:05:44.229Z,92.57
2023-04-03T05:08:10.897Z,91.88
2023-04-03T05:10:37.522Z,92.12
2023-04-03T05:13:04.142Z,92.40
2023-04-03T05:15:30.852Z,92.24
2023-04-03T05:17:57.540Z,91.69
2023-04-03T05:20:24.175Z,92.18
2023-04-03T05:22:50.686Z,92.04
2023-04-03T05:25:17.390Z,91.88
2023-04-03T05:27:43.916Z,92.43
2023-04-03T05:30:11.371Z,92.25
2023-04-03T05:32:37.919Z,92.16
2023-04-03T05:35:06.649Z,91.44
2023-04-03T05:37:33.453Z,91.68
2023-04-03T05:40:00.367Z,91.48
2023-04-03T05:42:27.430Z,91.67
2023-04-03T05:44:54.041Z,92.05
2023-04-03T05:47:20.881Z,91.71
2023-04-03T05:49:47.427Z,91.78
2023-04-03T05:52:36.085Z,91.82
2023-04-03T05:55:03.705Z,91.82
2023-04-03T05:57:30.406Z,92.00
2023-04-03T05:59:57.107Z,92.16
2023-04-03T06:02:25.818Z,91.97
2023-04-03T06:04:53.209Z,91.59
2023-04-03T06:07:23.765Z,92.14
2023-04-03T06:09:54.001Z,91.82
2023-04-03T06:12:20.980Z,92.06
2023-04-03T06:14:47.638Z,91.54
2023-04-03T06:17:15.324Z,91.85
2023-04-03T06:19:42.367Z,92.01
2023-04-03T06:22:09.065Z,91.36
2023-04-03T06:24:36.449Z,91.65
2023-04-03T06:27:03.135Z,91.99
2023-04-03T06:29:29.719Z,91.62
2023-04-03T06:31:56.477Z,91.27
2023-04-03T06:34:23.194Z,91.26
2023-04-03T06:36:51.541Z,90.84
2023-04-03T06:39:22.036Z,91.22
2023-04-03T06:41:48.944Z,91.34
2023-04-03T06:44:16.985Z,91.21
2023-04-03T06:46:44.937Z,91.37
2023-04-03T06:49:11.686Z,90.68
2023-04-03T06:51:38.284Z,91.30
2023-04-03T06:54:07.039Z,90.78
2023-04-03T06:56:33.877Z,90.86
2023-04-03T06:59:00.742Z,90.72
2023-04-03T07:01:29.824Z,90.89
2023-04-03T07:03:57.124Z,90.85
2023-04-03T07:06:24.139Z,90.15
2023-04-03T07:08:51.363Z,89.88
2023-04-03T07:11:18.298Z,87.86
2023-04-03T07:13:44.944Z,87.92
2023-04-03T07:16:12.382Z,86.60
2023-04-03T07:18:39.015Z,87.34
2023-04-03T07:21:05.880Z,84.99
2023-04-03T07:23:32.545Z,83.97
2023-04-03T07:25:59.153Z,82.73
2023-04-03T07:28:27.927Z,80.54
2023-04-03T07:31:05.667Z,82.41
2023-04-03T07:33:33.097Z,81.96
2023-04-03T07:36:01.322Z,82.29
2023-04-03T07:38:28.483Z,80.44
2023-04-03T07:40:55.141Z,81.50
2023-04-03T07:43:23.266Z,77.60
2023-04-03T07:45:51.735Z,80.21
2023-04-03T07:48:23.900Z,79.29
2023-04-03T07:50:50.956Z,76.79
2023-04-03T07:53:17.553Z,74.88
2023-04-03T07:55:46.894Z,73.45
2023-04-03T07:58:16.607Z,76.98
2023-04-03T08:00:43.456Z,72.84
2023-04-03T08:03:12.684Z,72.30
2023-04-03T08:05:44.464Z,73.65
2023-04-03T08:08:21.545Z,74.47
2023-04-03T08:10:53.050Z,72.95
2023-04-03T08:13:20.270Z,72.70
2023-04-03T08:15:47.562Z,68.40
2023-04-03T08:18:15.859Z,72.47
2023-04-03T08:20:42.701Z,73.82
2023-04-03T08:23:09.779Z,69.96
2023-04-03T08:25:41.574Z,69.99
2023-04-03T08:28:09.279Z,69.00
2023-04-03T08:30:35.990Z,69.03
2023-04-03T08:33:03.682Z,69.08
2023-04-03T08:35:31.719Z,70.03
2023-04-03T08:37:58.639Z,68.32
2023-04-03T08:40:25.581Z,66.29
2023-04-03T08:43:41.133Z,65.33
2023-04-03T08:46:14.595Z,61.03
2023-04-03T08:48:43.764Z,66.07
2023-04-03T08:51:21.409Z,63.92
2023-04-03T08:54:00.344Z,62.75
2023-04-03T08:56:27.790Z,61.93
2023-04-03T08:59:06.321Z,58.05
2023-04-03T09:01:40.373Z,53.11
2023-04-03T09:04:14.914Z,60.88
2023-04-03T09:06:50.840Z,54.27
2023-04-03T09:09:39.529Z,57.32
2023-04-03T09:12:27.473Z,58.06
2023-04-03T09:15:12.653Z,52.86
2023-04-03T09:17:58.030Z,47.88
2023-04-03T09:20:43.008Z,51.95
2023-04-03T09:23:18.373Z,47.68
2023-04-03T09:25:46.092Z,52.88
2023-04-03T09:28:13.132Z,47.29
2023-04-03T09:30:39.907Z,50.63
2023-04-03T09:33:08.061Z,44.98
2023-04-03T09:35:47.239Z,48.58
2023-04-03T09:38:15.157Z,50.40
2023-04-03T09:40:44.680Z,49.32
2023-04-03T09:43:16.881Z,48.93
2023-04-03T09:45:45.723Z,46.67
2023-04-03T09:48:16.779Z,41.53
2023-04-03T09:50:49.261Z,47.64
2023-04-03T09:53:33.562Z,50.54
2023-04-03T09:56:01.822Z,50.48
2023-04-03T09:58:50.245Z,46.95
2023-04-03T10:01:33.201Z,46.50
2023-04-03T10:04:20.028Z,44.71
2023-04-03T10:06:49.775Z,45.67
2023-04-03T10:09:19.488Z,45.99
2023-04-03T10:12:12.879Z,42.12
2023-04-03T10:15:00.458Z,39.37
2023-04-03T10:17:48.921Z,48.03
2023-04-03T10:20:31.434Z,48.85
2023-04-03T10:23:05.159Z,48.22
2023-04-03T10:26:01.833Z,49.44
2023-04-03T10:28:34.304Z,49.37
2023-04-03T10:31:22.041Z,42.65
2023-04-03T10:34:25.978Z,41.04
2023-04-03T10:37:20.126Z,47.38
2023-04-03T10:39:58.825Z,40.00
2023-04-03T10:42:40.815Z,43.43
2023-04-03T10:45:38.598Z,40.15
2023-04-03T10:48:30.580Z,48.35
2023-04-03T10:51:15.335Z,43.34
2023-04-03T10:54:01.605Z,42.65
2023-04-03T10:56:38.414Z,47.28
2023-04-03T10:59:31.486Z,45.17
2023-04-03T11:02:05.644Z,39.73
2023-04-03T11:04:38.963Z,44.24
2023-04-03T11:07:29.318Z,44.20
2023-04-03T11:10:06.971Z,43.39
2023-04-03T11:12:46.455Z,42.61
2023-04-03T11:15:19.902Z,45.65
2023-04-03T11:17:55.564Z,46.48
2023-04-03T11:20:29.580Z,40.45
2023-04-03T11:23:30.397Z,43.10
2023-04-03T11:26:12.589Z,46.89
2023-04-03T11:28:40.802Z,45.82
2023-04-03T11:31:24.075Z,42.88
2023-04-03T11:34:11.452Z,44.37
2023-04-03T11:36:46.786Z,44.91
2023-04-03T11:39:38.730Z,46.11
2023-04-03T11:42:16.574Z,44.54
2023-04-03T11:44:43.648Z,44.96
2023-04-03T11:47:13.060Z,38.32
2023-04-03T11:50:03.442Z,41.85
2023-04-03T11:52:40.986Z,40.16
2023-04-03T11:55:21.701Z,41.59
2023-04-03T11:58:00.675Z,43.99
2023-04-03T12:00:53.686Z,45.17
2023-04-03T12:03:30.344Z,43.82
2023-04-03T12:06:06.965Z,45.47
2023-04-03T12:08:33.483Z,45.76
2023-04-03T12:11:12.258Z,44.50
2023-04-03T12:14:01.810Z,45.55
2023-04-03T12:16:45.686Z,43.73
2023-04-03T12:19:15.170Z,43.75
2023-04-03T12:21:47.582Z,41.40
2023-04-03T12:24:16.888Z,44.18
2023-04-03T12:27:02.554Z,44.88
2023-04-03T12:29:35.001Z,44.56
2023-04-03T12:32:04.236Z,43.71
2023-04-03T12:34:51.032Z,42.77
2023-04-03T12:37:20.230Z,47.64
2023-04-03T12:40:10.913Z,41.96
2023-04-03T12:42:56.583Z,42.76
2023-04-03T12:45:27.531Z,43.68
2023-04-03T12:47:56.840Z,44.22
2023-04-03T12:50:31.732Z,44.75
2023-04-03T12:53:05.125Z,45.14
2023-04-03T12:55:31.870Z,44.47
2023-04-03T12:57:58.480Z,44.35
2023-04-03T13:00:34.162Z,43.50
2023-04-03T13:03:04.573Z,42.01
2023-04-03T13:05:34.530Z,42.51
2023-04-03T13:08:13.613Z,43.13
2023-04-03T13:10:56.500Z,41.61
2023-04-03T13:13:24.181Z,42.34
2023-04-03T13:15:52.291Z,43.01
2023-04-03T13:18:38.848Z,44.85
2023-04-03T13:21:16.395Z,44.60
2023-04-03T13:23:51.424Z,43.51
2023-04-03T13:26:23.309Z,44.65
2023-04-03T13:28:52.547Z,43.50
2023-04-03T13:31:32.106Z,41.42
2023-04-03T13:34:06.711Z,47.74
2023-04-03T13:36:45.555Z,41.97
2023-04-03T13:39:14.792Z,46.81
2023-04-03T13:41:47.638Z,44.79
2023-04-03T13:44:23.265Z,44.69
2023-04-03T13:46:56.229Z,46.48
2023-04-03T13:49:32.609Z,44.68
2023-04-03T13:52:07.449Z,42.97
2023-04-03T13:54:40.554Z,44.65
2023-04-03T13:57:16.966Z,44.28
2023-04-03T13:59:44.542Z,42.31
2023-04-03T14:02:19.313Z,44.05
2023-04-03T14:04:45.856Z,44.07
2023-04-03T14:07:13.027Z,44.69
2023-04-03T14:09:39.529Z,45.73
2023-04-03T14:12:24.215Z,46.45
2023-04-03T14:14:57.436Z,46.35
2023-04-03T14:17:27.222Z,45.90
2023-04-03T14:19:56.530Z,45.50
2023-04-03T14:22:25.926Z,48.03
2023-04-03T14:24:53.685Z,47.63
2023-04-03T14:27:27.742Z,45.81
2023-04-03T14:29:56.148Z,44.71
2023-04-03T14:32:24.410Z,48.48
2023-04-03T14:34:53.153Z,44.25
2023-04-03T14:37:24.265Z,45.24
2023-04-03T14:39:53.871Z,43.15
2023-04-03T14:42:24.688Z,46.98
2023-04-03T14:44:52.671Z,46.17
2023-04-03T14:47:31.922Z,49.27
2023-04-03T14:50:04.334Z,46.48
2023-04-03T14:52:35.639Z,46.88
2023-04-03T14:55:05.193Z,47.33
2023-04-03T14:57:33.252Z,45.61
2023-04-03T14:59:59.938Z,49.69
2023-04-03T15:02:36.724Z,47.73
2023-04-03T15:05:07.810Z,48.17
2023-04-03T15:07:41.332Z,47.13
2023-04-03T15:10:17.120Z,46.12
2023-04-03T15:12:45.308Z,47.00
2023-04-03T15:15:13.839Z,45.38
2023-04-03T15:17:41.175Z,47.14
2023-04-03T15:20:17.129Z,46.96
2023-04-03T15:22:44.178Z,48.62
2023-04-03T15:25:11.311Z,47.72
2023-04-03T15:27:39.330Z,45.89
2023-04-03T15:30:08.867Z,48.54
2023-04-03T15:32:36.436Z,45.68
2023-04-03T15:35:03.374Z,47.69
2023-04-03T15:37:29.958Z,47.34
2023-04-03T15:39:56.550Z,45.07
2023-04-03T15:42:23.488Z,47.81
2023-04-03T15:44:50.276Z,50.52
2023-04-03T15:47:16.901Z,46.56
2023-04-03T15:49:43.508Z,48.29
2023-04-03T15:52:10.270Z,48.19
2023-04-03T15:54:36.814Z,49.62
2023-04-03T15:57:03.490Z,48.76
2023-04-03T15:59:31.820Z,49.77
2023-04-03T16:02:02.475Z,46.61
2023-04-03T16:04:29.823Z,49.81
2023-04-03T16:06:56.484Z,48.77
2023-04-03T16:09:23.178Z,47.23
2023-04-03T16:11:49.702Z,48.59
2023-04-03T16:14:16.206Z,49.47
2023-04-03T16:16:43.068Z,48.30
2023-04-03T16:19:11.081Z,48.08
2023-04-03T16:21:37.625Z,51.03
2023-04-03T16:24:04.724Z,50.13
2023-04-03T16:26:32.393Z,51.65
2023-04-03T16:28:59.201Z,49.30
2023-04-03T16:31:27.049Z,49.48
2023-04-03T16:33:55.124Z,50.17
2023-04-03T16:36:21.661Z,50.75
2023-04-03T16:38:48.224Z,47.91
2023-04-03T16:41:16.066Z,49.79
2023-04-03T16:46:10.368Z,49.28
2023-04-03T16:48:37.199Z,54.02
2023-04-03T16:51:03.893Z,50.59
2023-04-03T16:53:30.521Z,51.21
2023-04-03T16:55:59.094Z,51.68
2023-04-03T16:58:26.146Z,53.32
2023-04-03T17:00:54.487Z,49.34
2023-04-03T17:03:21.432Z,50.94
2023-04-03T17:05:48.971Z,53.80
2023-04-03T17:08:18.485Z,50.87
2023-04-03T17:10:45.110Z,51.99
2023-04-03T17:13:11.646Z,52.50
2023-04-03T17:15:38.913Z,50.49
2023-04-03T17:18:05.842Z,51.66
2023-04-03T17:20:34.665Z,51.41
2023-04-03T17:23:01.384Z,50.19
2023-04-03T17:25:28.050Z,51.86
2023-04-03T17:27:54.565Z,52.63
2023-04-03T17:30:21.250Z,50.29
2023-04-03T17:32:47.875Z,52.32
2023-04-03T17:35:14.483Z,51.47
2023-04-03T17:37:41.127Z,51.14
2023-04-03T17:40:08.251Z,53.63
2023-04-03T17:42:34.876Z,52.65
2023-04-03T17:45:01.685Z,52.65
2023-04-03T17:47:28.492Z,52.22
2023-04-03T17:49:55.391Z,52.58
2023-04-03T17:52:25.530Z,52.02
2023-04-03T17:54:52.202Z,53.38
2023-04-03T17:57:19.156Z,52.79
2023-04-03T17:59:46.640Z,54.41
2023-04-03T18:02:13.309Z,55.19
2023-04-03T18:04:39.820Z,55.49
2023-04-03T18:07:09.659Z,54.15
2023-04-03T18:09:38.186Z,54.11
2023-04-03T18:12:07.296Z,56.89
2023-04-03T18:14:36.134Z,55.38
2023-04-03T18:17:02.913Z,57.20
2023-04-03T18:19:30.033Z,56.98
2023-04-03T18:22:01.174Z,58.51
2023-04-03T18:24:28.757Z,56.47
2023-04-03T18:27:11.442Z,57.55
2023-04-03T18:29:42.361Z,57.02
2023-04-03T18:32:13.077Z,58.05
2023-04-03T18:34:39.650Z,57.36
2023-04-03T18:37:06.484Z,58.69
2023-04-03T18:39:33.131Z,59.30
2023-04-03T18:42:06.609Z,57.80
2023-04-03T18:44:34.856Z,58.20
2023-04-03T18:47:01.473Z,58.22
2023-04-03T18:49:30.963Z,59.58
2023-04-03T18:51:57.679Z,59.65
2023-04-03T18:54:24.462Z,59.20
2023-04-03T18:56:52.029Z,59.10
2023-04-03T18:59:18.850Z,58.75
2023-04-03T19:01:45.808Z,59.72
2023-04-03T19:04:12.915Z,60.11
2023-04-03T19:06:39.653Z,61.08
2023-04-03T19:09:09.158Z,61.13
2023-04-03T19:11:36.667Z,60.62
2023-04-03T19:14:16.073Z,62.19
2023-04-03T19:16:43.710Z,62.00
2023-04-03T19:19:10.569Z,61.27
2023-04-03T19:21:41.041Z,62.98
2023-04-03T19:24:09.599Z,63.58
2023-04-03T19:26:36.169Z,64.01
2023-04-03T19:29:02.963Z,64.13
2023-04-03T19:33:57.507Z,65.09
2023-04-03T19:36:24.045Z,64.96
2023-04-03T19:38:50.857Z,65.13
2023-04-03T19:41:20.665Z,65.91
2023-04-03T19:43:50.614Z,66.09
2023-04-03T19:46:18.823Z,66.28
2023-04-03T19:48:47.296Z,66.04
2023-04-03T19:51:14.413Z,66.32
2023-04-03T19:53:40.918Z,67.15
2023-04-03T19:56:08.868Z,66.67
2023-04-03T19:58:35.774Z,67.34
2023-04-03T20:01:02.333Z,67.47
2023-04-03T20:03:28.913Z,67.88
2023-04-03T20:05:57.584Z,68.37
2023-04-03T20:08:26.205Z,68.80
2023-04-03T20:10:52.808Z,68.94
2023-04-03T20:13:19.646Z,68.65
2023-04-03T20:15:46.395Z,68.53
2023-04-03T20:18:19.781Z,69.27
2023-04-03T20:20:58.473Z,69.25
2023-04-03T20:23:29.763Z,70.39
2023-04-03T20:26:09.424Z,70.36
2023-04-03T20:28:37.998Z,70.80
2023-04-03T20:31:06.374Z,71.13
2023-04-03T20:33:33.034Z,71.19
2023-04-03T20:35:59.626Z,71.20
2023-04-03T20:38:26.267Z,71.38
2023-04-03T20:40:52.914Z,71.91
2023-04-03T20:43:21.693Z,71.81
2023-04-03T20:45:49.250Z,71.54
2023-04-03T20:48:16.619Z,72.64
2023-04-03T20:50:45.732Z,72.87
2023-04-03T20:53:12.703Z,73.26
2023-04-03T20:55:39.342Z,72.76
2023-04-03T20:58:05.943Z,72.47
2023-04-03T21:00:32.593Z,72.78
2023-04-03T21:03:01.484Z,71.72
2023-04-03T21:05:30.316Z,72.35
2023-04-03T21:08:35.905Z,72.38
2023-04-03T21:11:40.421Z,72.62
2023-04-03T21:14:46.838Z,72.97
2023-04-03T21:17:13.640Z,72.28
2023-04-03T21:19:46.371Z,72.57
2023-04-03T21:22:16.016Z,73.72
2023-04-03T21:24:44.208Z,73.70
2023-04-03T21:27:10.946Z,73.37
2023-04-03T21:29:37.538Z,73.82
2023-04-03T21:32:04.262Z,74.08
2023-04-03T21:34:31.776Z,74.31
2023-04-03T21:37:07.309Z,73.83
2023-04-03T21:39:34.304Z,73.87
2023-04-03T21:42:00.847Z,74.09
2023-04-03T21:44:30.272Z,74.81
2023-04-03T21:46:56.872Z,75.08
2023-04-03T21:49:25.382Z,75.05
2023-04-03T21:51:52.199Z,75.10
2023-04-03T21:54:19.810Z,75.08
2023-04-03T21:56:48.061Z,75.08
2023-04-03T21:59:15.116Z,75.46
2023-04-03T22:01:42.048Z,74.67
2023-04-03T22:04:08.682Z,75.03
2023-04-03T22:06:37.221Z,75.45
2023-04-03T22:09:04.104Z,75.17
2023-04-03T22:11:31.113Z,75.80
2023-04-03T22:13:57.722Z,75.62
2023-04-03T22:16:24.499Z,75.31
2023-04-03T22:18:56.147Z,75.83
2023-04-03T22:21:22.999Z,75.88
2023-04-03T22:23:51.748Z,75.76
2023-04-03T22:26:18.318Z,75.31
2023-04-03T22:28:46.671Z,75.95
2023-04-03T22:31:17.717Z,76.04
2023-04-03T22:33:45.822Z,75.71
2023-04-03T22:36:14.150Z,75.79
2023-04-03T22:38:45.573Z,76.29
2023-04-03T22:41:12.304Z,76.06
2023-04-03T22:43:39.981Z,76.06
2023-04-03T22:46:08.725Z,75.32
2023-04-03T22:48:37.106Z,75.59
2023-04-03T22:51:10.081Z,75.29
2023-04-03T22:53:37.767Z,75.20
2023-04-03T22:56:13.764Z,76.32
2023-04-03T22:58:40.392Z,75.72
2023-04-03T23:01:11.865Z,75.80
2023-04-03T23:03:39.850Z,75.36
2023-04-03T23:06:07.814Z,75.23
2023-04-03T23:08:37.723Z,75.91
2023-04-03T23:11:06.877Z,74.38
2023-04-03T23:13:33.586Z,75.85
2023-04-03T23:16:02.515Z,75.61
2023-04-03T23:18:31.341Z,74.74
2023-04-03T23:21:04.636Z,74.89
2023-04-03T23:23:31.887Z,74.62
2023-04-03T23:26:01.243Z,74.39
2023-04-03T23:28:28.924Z,74.84
2023-04-03T23:31:04.447Z,76.06
2023-04-03T23:33:32.660Z,74.54
2023-04-03T23:36:01.091Z,74.99
2023-04-03T23:38:27.841Z,74.15
2023-04-03T23:40:54.367Z,74.63
2023-04-03T23:43:21.130Z,74.24
2023-04-03T23:45:47.805Z,75.00
2023-04-03T23:48:14.986Z,74.68
2023-04-03T23:50:42.552Z,74.25
2023-04-03T23:53:09.503Z,74.38
2023-04-03T23:55:36.079Z,74.28
2023-04-03T23:58:02.722Z,74.66
